createdAt,value
2018-04-02T00:00:46.706Z,0
2018-04-02T00:01:46.725Z,0
2018-04-02T00:02:46.216Z,0
2018-04-02T00:03:46.749Z,0
2018-04-02T00:04:46.763Z,0
2018-04-02T00:05:46.880Z,0
2018-04-02T00:06:46.793Z,0
2018-04-02T00:07:46.544Z,0
2018-04-02T00:08:46.561Z,0
2018-04-02T00:09:46.844Z,0
2018-04-02T00:11:01.603Z,0
2018-04-02T00:11:46.648Z,0
2018-04-02T00:13:46.900Z,0
2018-04-02T00:15:46.920Z,0
2018-04-02T00:17:01.591Z,0
2018-04-02T00:17:46.959Z,0
2018-04-02T00:18:46.701Z,0
2018-04-02T00:19:46.724Z,0
2018-04-02T00:20:46.739Z,0
2018-04-02T00:21:47.102Z,0
2018-04-02T00:22:47.019Z,0
2018-04-02T00:23:47.033Z,0
2018-04-02T00:24:47.048Z,0
2018-04-02T00:25:47.065Z,0
2018-04-02T00:27:16.387Z,0
2018-04-02T00:27:46.831Z,0
2018-04-02T00:29:46.861Z,0
2018-04-02T00:30:47.128Z,0
2018-04-02T00:31:46.884Z,0
2018-04-02T00:32:47.160Z,0
2018-04-02T00:33:47.172Z,0
2018-04-02T00:34:47.185Z,0
2018-04-02T00:35:47.202Z,0
2018-04-02T00:36:47.217Z,0
2018-04-02T00:37:47.234Z,0
2018-04-02T00:38:46.982Z,0
2018-04-02T00:39:46.996Z,0
2018-04-02T00:41:01.927Z,0
2018-04-02T00:41:47.281Z,0
2018-04-02T00:43:16.610Z,0
2018-04-02T00:43:47.401Z,0
2018-04-02T00:44:47.064Z,0
2018-04-02T00:45:47.089Z,0
2018-04-02T00:46:47.093Z,0
2018-04-02T00:48:02.075Z,0
2018-04-02T00:48:47.430Z,0
2018-04-02T00:50:02.049Z,0
2018-04-02T00:51:02.070Z,0
2018-04-02T00:52:02.083Z,0
2018-04-02T00:52:47.176Z,0
2018-04-02T00:53:47.462Z,0
2018-04-02T00:54:47.465Z,0
2018-04-02T00:55:47.490Z,0
2018-04-02T00:56:46.982Z,0
2018-04-02T00:57:47.513Z,0
2018-04-02T00:59:01.917Z,0
2018-04-02T01:00:01.929Z,0
2018-04-02T01:00:47.031Z,0
2018-04-02T01:01:47.567Z,0
2018-04-02T01:02:47.583Z,0
2018-04-02T01:03:47.068Z,0
2018-04-02T01:04:47.601Z,0
2018-04-02T01:06:02.274Z,0
2018-04-02T01:06:47.634Z,0
2018-04-02T01:07:47.664Z,0
2018-04-02T01:08:47.664Z,0
2018-04-02T01:09:47.677Z,0
2018-04-02T01:11:02.357Z,0
2018-04-02T01:11:47.702Z,0
2018-04-02T01:12:47.765Z,0
2018-04-02T01:14:02.396Z,0
2018-04-02T01:14:47.485Z,0
2018-04-02T01:16:47.769Z,0
2018-04-02T01:17:47.784Z,0
2018-04-02T01:18:47.797Z,0
2018-04-02T01:19:47.819Z,0
2018-04-02T01:20:47.827Z,0
2018-04-02T01:21:47.318Z,0
2018-04-02T01:22:47.863Z,0
2018-04-02T01:23:47.863Z,0
2018-04-02T01:24:47.625Z,0
2018-04-02T01:25:47.890Z,0
2018-04-02T01:26:47.910Z,0
2018-04-02T01:27:47.661Z,0
2018-04-02T01:28:48.151Z,0
2018-04-02T01:30:47.960Z,0
2018-04-02T01:31:47.717Z,0
2018-04-02T01:33:02.649Z,0
2018-04-02T01:33:47.483Z,0
2018-04-02T01:34:48.012Z,0
2018-04-02T01:36:02.687Z,0
2018-04-02T01:36:48.044Z,0
2018-04-02T01:37:47.797Z,0
2018-04-02T01:39:02.732Z,0
2018-04-02T01:39:48.099Z,0
2018-04-02T01:40:47.841Z,0
2018-04-02T01:41:48.114Z,0
2018-04-02T01:42:48.130Z,0
2018-04-02T01:43:48.151Z,0
2018-04-02T01:44:47.893Z,0
2018-04-02T01:46:02.834Z,0
2018-04-02T01:46:47.926Z,0
2018-04-02T01:47:48.199Z,0
2018-04-02T01:48:48.215Z,0
2018-04-02T01:49:48.229Z,0
2018-04-02T01:50:48.236Z,0
2018-04-02T01:51:47.989Z,0
2018-04-02T01:53:02.924Z,0
2018-04-02T01:53:48.276Z,0
2018-04-02T01:54:48.294Z,0
2018-04-02T01:55:48.316Z,0
2018-04-02T01:56:48.318Z,0
2018-04-02T01:57:48.330Z,0
2018-04-02T01:58:48.346Z,0
2018-04-02T01:59:48.360Z,0
2018-04-02T02:01:03.030Z,0
2018-04-02T02:02:03.044Z,0
2018-04-02T02:02:48.404Z,0
2018-04-02T02:03:48.156Z,0
2018-04-02T02:04:47.909Z,0
2018-04-02T02:05:48.183Z,0
2018-04-02T02:06:48.457Z,0
2018-04-02T02:07:48.211Z,0
2018-04-02T02:09:02.881Z,0
2018-04-02T02:09:48.499Z,0
2018-04-02T02:10:48.254Z,0
2018-04-02T02:11:48.533Z,0
2018-04-02T02:12:48.536Z,0
2018-04-02T02:14:03.258Z,0
2018-04-02T02:14:48.304Z,0
2018-04-02T02:16:03.236Z,0
2018-04-02T02:16:48.703Z,0
2018-04-02T02:18:03.261Z,0
2018-04-02T02:18:48.619Z,0
2018-04-02T02:19:48.372Z,0
2018-04-02T02:20:48.393Z,0
2018-04-02T02:21:48.658Z,0
2018-04-02T02:23:03.345Z,0
2018-04-02T02:23:48.431Z,0
2018-04-02T02:25:03.359Z,0
2018-04-02T02:25:48.716Z,0
2018-04-02T02:26:48.468Z,0
2018-04-02T02:27:48.483Z,0
2018-04-02T02:29:02.894Z,0
2018-04-02T02:29:48.770Z,0
2018-04-02T02:31:03.467Z,0
2018-04-02T02:31:48.801Z,0
2018-04-02T02:32:48.295Z,0
2018-04-02T02:34:03.480Z,0
2018-04-02T02:34:48.840Z,0
2018-04-02T02:36:03.258Z,0
2018-04-02T02:36:48.619Z,0
2018-04-02T02:37:48.373Z,0
2018-04-02T02:38:48.901Z,0
2018-04-02T02:39:48.946Z,0
2018-04-02T02:40:48.934Z,0
2018-04-02T02:42:03.595Z,0
2018-04-02T02:43:48.706Z,0
2018-04-02T02:44:48.460Z,0
2018-04-02T02:45:48.731Z,0
2018-04-02T02:46:49.011Z,0
2018-04-02T02:47:49.027Z,0
2018-04-02T02:49:03.694Z,0
2018-04-02T02:49:49.049Z,0
2018-04-02T02:51:03.457Z,0
2018-04-02T02:51:49.087Z,0
2018-04-02T02:52:49.082Z,0
2018-04-02T02:53:48.843Z,0
2018-04-02T02:55:03.509Z,0
2018-04-02T02:56:03.781Z,0
2018-04-02T02:56:49.145Z,0
2018-04-02T02:58:49.195Z,0
2018-04-02T02:59:49.176Z,0
2018-04-02T03:00:48.694Z,0
2018-04-02T03:01:49.219Z,0
2018-04-02T03:02:49.229Z,0
2018-04-02T03:03:49.243Z,0
2018-04-02T03:04:49.346Z,0
2018-04-02T03:05:49.266Z,0
2018-04-02T03:06:49.282Z,0
2018-04-02T03:07:49.300Z,0
2018-04-02T03:08:48.738Z,0
2018-04-02T03:10:03.450Z,0
2018-04-02T03:10:49.067Z,0
2018-04-02T03:12:03.998Z,0
2018-04-02T03:13:04.009Z,0
2018-04-02T03:14:04.027Z,0
2018-04-02T03:14:49.386Z,0
2018-04-02T03:15:49.400Z,0
2018-04-02T03:16:49.148Z,0
2018-04-02T03:17:49.160Z,0
2018-04-02T03:19:04.090Z,0
2018-04-02T03:19:48.929Z,0
2018-04-02T03:21:04.123Z,0
2018-04-02T03:22:49.231Z,0
2018-04-02T03:23:49.245Z,0
2018-04-02T03:24:49.517Z,0
2018-04-02T03:25:49.272Z,0
2018-04-02T03:26:49.291Z,0
2018-04-02T03:27:49.552Z,0
2018-04-02T03:29:04.296Z,0
2018-04-02T03:29:49.322Z,0
2018-04-02T03:31:04.258Z,0
2018-04-02T03:31:49.618Z,0
2018-04-02T03:32:49.625Z,0
2018-04-02T03:33:49.632Z,0
2018-04-02T03:34:49.650Z,0
2018-04-02T03:35:49.658Z,0
2018-04-02T03:37:04.328Z,0
2018-04-02T03:37:49.432Z,0
2018-04-02T03:38:49.700Z,0
2018-04-02T03:39:49.463Z,0
2018-04-02T03:40:49.734Z,0
2018-04-02T03:41:49.742Z,0
2018-04-02T03:43:04.163Z,0
2018-04-02T03:44:04.429Z,0
2018-04-02T03:44:49.782Z,0
2018-04-02T03:46:04.460Z,0
2018-04-02T03:46:49.810Z,0
2018-04-02T03:47:49.569Z,0
2018-04-02T03:48:49.836Z,0
2018-04-02T03:49:49.335Z,0
2018-04-02T03:51:04.517Z,0
2018-04-02T03:51:49.617Z,0
2018-04-02T03:53:19.200Z,0
2018-04-02T03:53:49.901Z,0
2018-04-02T03:54:49.914Z,0
2018-04-02T03:55:49.932Z,0
2018-04-02T03:56:49.939Z,0
2018-04-02T03:57:49.960Z,0
2018-04-02T03:58:49.758Z,0
2018-04-02T03:59:50.034Z,0
2018-04-02T04:01:04.658Z,0
2018-04-02T04:01:50.006Z,0
2018-04-02T04:02:50.023Z,0
2018-04-02T04:03:50.032Z,4
2018-04-02T04:05:04.706Z,4
2018-04-02T04:05:49.804Z,4
2018-04-02T04:06:50.078Z,0
2018-04-02T04:07:49.825Z,4
2018-04-02T04:09:04.500Z,4
2018-04-02T04:09:50.124Z,4
2018-04-02T04:10:50.131Z,4
2018-04-02T04:11:50.143Z,4
2018-04-02T04:12:50.153Z,4
2018-04-02T04:13:50.168Z,4
2018-04-02T04:14:50.189Z,8
2018-04-02T04:15:50.193Z,8
2018-04-02T04:16:49.949Z,8
2018-04-02T04:17:50.220Z,12
2018-04-02T04:18:49.976Z,16
2018-04-02T04:19:50.244Z,16
2018-04-02T04:20:49.997Z,20
2018-04-02T04:21:50.013Z,20
2018-04-02T04:22:50.303Z,24
2018-04-02T04:24:04.697Z,24
2018-04-02T04:24:50.315Z,28
2018-04-02T04:25:50.330Z,32
2018-04-02T04:26:50.084Z,40
2018-04-02T04:27:50.353Z,36
2018-04-02T04:28:50.366Z,44
2018-04-02T04:30:50.133Z,72
2018-04-02T04:31:50.404Z,76
2018-04-02T04:33:05.076Z,88
2018-04-02T04:33:50.431Z,100
2018-04-02T04:34:50.444Z,128
2018-04-02T04:35:50.203Z,152
2018-04-02T04:36:50.478Z,180
2018-04-02T04:38:05.143Z,200
2018-04-02T04:38:50.260Z,216
2018-04-02T04:39:50.512Z,224
2018-04-02T04:40:50.274Z,252
2018-04-02T04:41:50.539Z,296
2018-04-02T04:42:50.558Z,352
2018-04-02T04:43:50.309Z,388
2018-04-02T04:44:50.319Z,416
2018-04-02T04:46:05.257Z,480
2018-04-02T04:46:50.606Z,504
2018-04-02T04:47:50.109Z,508
2018-04-02T04:48:50.645Z,528
2018-04-02T04:50:50.403Z,516
2018-04-02T04:51:50.420Z,500
2018-04-02T04:52:50.684Z,616
2018-04-02T04:53:50.699Z,648
2018-04-02T04:54:50.715Z,696
2018-04-02T04:56:05.483Z,744
2018-04-02T04:56:50.220Z,680
2018-04-02T04:57:50.756Z,776
2018-04-02T04:58:50.764Z,916
2018-04-02T04:59:50.520Z,908
2018-04-02T05:00:50.796Z,924
2018-04-02T05:01:50.550Z,832
2018-04-02T05:02:50.824Z,816
2018-04-02T05:04:05.492Z,832
2018-04-02T05:04:50.585Z,720
2018-04-02T05:05:50.608Z,612
2018-04-02T05:06:50.886Z,680
2018-04-02T05:07:50.883Z,712
2018-04-02T05:08:50.911Z,716
2018-04-02T05:09:50.919Z,700
2018-04-02T05:10:50.929Z,896
2018-04-02T05:12:05.338Z,936
2018-04-02T05:12:50.955Z,892
2018-04-02T05:14:50.984Z,884
2018-04-02T05:15:50.738Z,1024
2018-04-02T05:16:51.012Z,1272
2018-04-02T05:17:50.767Z,1232
2018-04-02T05:18:51.043Z,1328
2018-04-02T05:19:51.047Z,1496
2018-04-02T05:21:05.716Z,1344
2018-04-02T05:21:51.076Z,1388
2018-04-02T05:22:51.266Z,1428
2018-04-02T05:23:50.850Z,1584
2018-04-02T05:24:51.120Z,1552
2018-04-02T05:25:51.133Z,1376
2018-04-02T05:26:50.883Z,1636
2018-04-02T05:29:05.573Z,1872
2018-04-02T05:29:50.664Z,1920
2018-04-02T05:31:05.864Z,1952
2018-04-02T05:32:05.875Z,1876
2018-04-02T05:32:50.966Z,2076
2018-04-02T05:33:50.982Z,1972
2018-04-02T05:34:51.261Z,2220
2018-04-02T05:35:51.017Z,2500
2018-04-02T05:36:51.277Z,2248
2018-04-02T05:37:51.291Z,2244
2018-04-02T05:38:51.412Z,2048
2018-04-02T05:40:06.139Z,2116
2018-04-02T05:40:50.815Z,2292
2018-04-02T05:41:51.347Z,2508
2018-04-02T05:42:51.378Z,2220
2018-04-02T05:44:06.041Z,2088
2018-04-02T05:44:51.398Z,2088
2018-04-02T05:46:06.064Z,2072
2018-04-02T05:46:51.433Z,2000
2018-04-02T05:47:51.431Z,2128
2018-04-02T05:48:51.448Z,2024
2018-04-02T05:50:51.473Z,2104
2018-04-02T05:51:51.229Z,2492
2018-04-02T05:52:51.514Z,1900
2018-04-02T05:53:51.514Z,1924
2018-04-02T05:54:51.528Z,1792
2018-04-02T05:55:51.284Z,2136
2018-04-02T05:56:51.552Z,2700
2018-04-02T05:57:51.572Z,3368
2018-04-02T05:59:06.240Z,2816
2018-04-02T05:59:51.649Z,3424
2018-04-02T06:00:51.359Z,3828
2018-04-02T06:01:51.635Z,2648
2018-04-02T06:02:51.381Z,4784
2018-04-02T06:03:51.654Z,3648
2018-04-02T06:04:51.671Z,4060
2018-04-02T06:05:51.421Z,6188
2018-04-02T06:06:51.704Z,3356
2018-04-02T06:08:06.364Z,2756
2018-04-02T06:09:06.385Z,2744
2018-04-02T06:09:51.747Z,4632
2018-04-02T06:11:06.412Z,5420
2018-04-02T06:11:51.772Z,5404
2018-04-02T06:12:51.778Z,4312
2018-04-02T06:13:51.794Z,4252
2018-04-02T06:15:06.466Z,7964
2018-04-02T06:15:51.823Z,8112
2018-04-02T06:16:51.849Z,7636
2018-04-02T06:18:06.520Z,4656
2018-04-02T06:18:51.865Z,4180
2018-04-02T06:19:51.625Z,5212
2018-04-02T06:20:51.892Z,4924
2018-04-02T06:21:51.656Z,4756
2018-04-02T06:23:06.586Z,8872
2018-04-02T06:25:51.965Z,5296
2018-04-02T06:26:51.987Z,5064
2018-04-02T06:27:52.001Z,6708
2018-04-02T06:28:52.109Z,4900
2018-04-02T06:29:51.766Z,4688
2018-04-02T06:31:06.437Z,4928
2018-04-02T06:32:52.067Z,4592
2018-04-02T06:33:52.184Z,5420
2018-04-02T06:34:52.101Z,8292
2018-04-02T06:36:06.780Z,10224
2018-04-02T06:36:51.916Z,8580
2018-04-02T06:37:51.884Z,7004
2018-04-02T06:38:51.903Z,7164
2018-04-02T06:39:52.173Z,10076
2018-04-02T06:40:51.966Z,14740
2018-04-02T06:41:52.214Z,8500
2018-04-02T06:42:51.701Z,9932
2018-04-02T06:43:52.239Z,15356
2018-04-02T06:44:52.260Z,18592
2018-04-02T06:45:52.262Z,11512
2018-04-02T06:48:06.967Z,20704
2018-04-02T06:48:52.313Z,9944
2018-04-02T06:50:06.827Z,8552
2018-04-02T06:50:51.824Z,8360
2018-04-02T06:51:52.096Z,11808
2018-04-02T06:52:52.381Z,19424
2018-04-02T06:53:52.130Z,29728
2018-04-02T06:54:52.151Z,13940
2018-04-02T06:56:06.820Z,35808
2018-04-02T06:56:52.450Z,53440
2018-04-02T06:57:52.195Z,35360
2018-04-02T06:58:52.477Z,18432
2018-04-02T07:01:07.164Z,15244
2018-04-02T07:01:52.528Z,18016
2018-04-02T07:03:06.939Z,18880
2018-04-02T07:03:52.558Z,13844
2018-04-02T07:04:52.415Z,13776
2018-04-02T07:05:52.600Z,16672
2018-04-02T07:06:52.352Z,16480
2018-04-02T07:08:52.697Z,12824
2018-04-02T07:09:52.417Z,11916
2018-04-02T07:10:52.432Z,28480
2018-04-02T07:11:52.441Z,48640
2018-04-02T07:12:52.720Z,11452
2018-04-02T07:13:52.745Z,15504
2018-04-02T07:14:53.433Z,14628
2018-04-02T07:15:52.518Z,20384
2018-04-02T07:19:22.143Z,10212
2018-04-02T07:20:07.247Z,12148
2018-04-02T07:20:52.611Z,14932
2018-04-02T07:21:52.628Z,58592
2018-04-02T07:22:52.943Z,21728
2018-04-02T07:23:52.921Z,18720
2018-04-02T07:24:53.036Z,16376
2018-04-02T07:26:07.352Z,17864
2018-04-02T07:26:52.196Z,47104
2018-04-02T07:28:53.016Z,66560
2018-04-02T07:29:52.769Z,64384
2018-04-02T07:30:53.047Z,70496
2018-04-02T07:31:53.070Z,62944
2018-04-02T07:32:53.092Z,65536
2018-04-02T07:34:07.769Z,72160
2018-04-02T07:34:53.133Z,75264
2018-04-02T07:35:53.152Z,70336
2018-04-02T07:36:53.173Z,67328
2018-04-02T07:37:53.194Z,50144
2018-04-02T07:38:53.221Z,68224
2018-04-02T07:39:53.240Z,63520
2018-04-02T07:40:53.020Z,67712
2018-04-02T07:41:53.293Z,67328
2018-04-02T07:42:53.311Z,66464
2018-04-02T07:43:53.334Z,64480
2018-04-02T07:44:53.360Z,34368
2018-04-02T07:45:53.129Z,72992
2018-04-02T07:47:52.912Z,24448
2018-04-02T07:48:53.195Z,62784
2018-04-02T07:49:53.220Z,69792
2018-04-02T07:51:07.906Z,24224
2018-04-02T07:51:53.528Z,22048
2018-04-02T07:53:53.059Z,57472
2018-04-02T07:54:53.445Z,71168
2018-04-02T07:55:53.624Z,62432
2018-04-02T07:57:08.096Z,54048
2018-04-02T07:58:08.175Z,67616
2018-04-02T07:58:53.442Z,62816
2018-04-02T07:59:53.728Z,64960
2018-04-02T08:00:53.761Z,63808
2018-04-02T08:01:53.770Z,64352
2018-04-02T08:02:54.234Z,62368
2018-04-02T08:03:53.570Z,62528
2018-04-02T08:04:53.589Z,56704
2018-04-02T08:06:08.273Z,57856
2018-04-02T08:06:53.905Z,63488
2018-04-02T08:07:53.661Z,61440
2018-04-02T08:09:08.352Z,58976
2018-04-02T08:10:08.674Z,57632
2018-04-02T08:10:53.995Z,42496
2018-04-02T08:11:54.023Z,51712
2018-04-02T08:12:54.043Z,46048
2018-04-02T08:14:08.473Z,56736
2018-04-02T08:14:54.097Z,54336
2018-04-02T08:15:54.291Z,54112
2018-04-02T08:16:54.157Z,54368
2018-04-02T08:17:54.106Z,51872
2018-04-02T08:18:54.205Z,48512
2018-04-02T08:20:54.257Z,53248
2018-04-02T08:22:08.930Z,54944
2018-04-02T08:22:54.038Z,54368
2018-04-02T08:23:54.325Z,51040
2018-04-02T08:24:54.346Z,50752
2018-04-02T08:25:54.114Z,50944
2018-04-02T08:26:54.412Z,50144
2018-04-02T08:27:54.163Z,49568
2018-04-02T08:29:09.111Z,50432
2018-04-02T08:29:53.958Z,47712
2018-04-02T08:30:54.502Z,45664
2018-04-02T08:31:54.535Z,46912
2018-04-02T08:32:54.291Z,33856
2018-04-02T08:33:54.416Z,43808
2018-04-02T08:34:54.344Z,47584
2018-04-02T08:35:54.627Z,45696
2018-04-02T08:36:53.874Z,45248
2018-04-02T08:38:08.818Z,40768
2018-04-02T08:38:55.088Z,40384
2018-04-02T08:39:54.727Z,17420
2018-04-02T08:40:54.755Z,46752
2018-04-02T08:41:54.783Z,17016
2018-04-02T08:42:54.808Z,45472
2018-04-02T08:43:54.828Z,43520
2018-04-02T08:44:54.863Z,42976
2018-04-02T08:46:09.543Z,40704
2018-04-02T08:46:54.384Z,42304
2018-04-02T08:47:54.924Z,44256
2018-04-02T08:48:54.962Z,42464
2018-04-02T08:49:54.722Z,39712
2018-04-02T08:50:54.750Z,36000
2018-04-02T08:51:55.041Z,38016
2018-04-02T08:52:55.091Z,39648
2018-04-02T08:54:09.743Z,37504
2018-04-02T08:54:55.105Z,34624
2018-04-02T08:56:09.872Z,36192
2018-04-02T08:56:55.153Z,36960
2018-04-02T08:57:54.916Z,35744
2018-04-02T08:58:54.947Z,36608
2018-04-02T08:59:55.222Z,33184
2018-04-02T09:00:54.735Z,29984
2018-04-02T09:01:55.275Z,29728
2018-04-02T09:02:55.299Z,28352
2018-04-02T09:03:55.325Z,27232
2018-04-02T09:04:55.089Z,26176
2018-04-02T09:05:55.114Z,25536
2018-04-02T09:06:55.406Z,24256
2018-04-02T09:09:09.850Z,23904
2018-04-02T09:09:55.478Z,23488
2018-04-02T09:11:10.167Z,23360
2018-04-02T09:11:55.524Z,23488
2018-04-02T09:12:55.554Z,23840
2018-04-02T09:13:55.316Z,13616
2018-04-02T09:14:55.081Z,18208
2018-04-02T09:15:55.683Z,13696
2018-04-02T09:17:10.309Z,20832
2018-04-02T09:17:55.678Z,15480
2018-04-02T09:18:55.444Z,23392
2018-04-02T09:19:55.734Z,22976
2018-04-02T09:21:55.808Z,21344
2018-04-02T09:22:55.284Z,21856
2018-04-02T09:24:10.596Z,21088
2018-04-02T09:24:55.981Z,21376
2018-04-02T09:25:55.645Z,21184
2018-04-02T09:26:55.896Z,19104
2018-04-02T09:27:55.918Z,21760
2018-04-02T09:28:55.939Z,17856
2018-04-02T09:29:56.080Z,12564
2018-04-02T09:30:55.995Z,11732
2018-04-02T09:31:56.062Z,16328
2018-04-02T09:32:55.786Z,21760
2018-04-02T09:33:56.062Z,22208
2018-04-02T09:35:10.493Z,21600
2018-04-02T09:35:56.118Z,21472
2018-04-02T09:36:56.149Z,22016
2018-04-02T09:38:10.825Z,20864
2018-04-02T09:39:10.893Z,20640
2018-04-02T09:39:56.207Z,20544
2018-04-02T09:41:10.638Z,19840
2018-04-02T09:41:56.007Z,19808
2018-04-02T09:42:56.287Z,19648
2018-04-02T09:44:10.710Z,18944
2018-04-02T09:44:56.070Z,18784
2018-04-02T09:45:56.356Z,18528
2018-04-02T09:46:56.119Z,18368
2018-04-02T09:48:11.062Z,18496
2018-04-02T09:49:11.086Z,18400
2018-04-02T09:49:56.200Z,18144
2018-04-02T09:50:56.217Z,17620
2018-04-02T09:51:56.502Z,17604
2018-04-02T09:52:56.267Z,17824
2018-04-02T09:53:56.561Z,17888
2018-04-02T09:55:10.980Z,17920
2018-04-02T09:55:56.606Z,17604
2018-04-02T09:57:25.942Z,16864
2018-04-02T09:57:56.395Z,16684
2018-04-02T09:58:56.745Z,16696
2018-04-02T09:59:56.698Z,16572
2018-04-02T10:00:56.721Z,16652
2018-04-02T10:01:56.491Z,16668
2018-04-02T10:02:56.515Z,16488
2018-04-02T10:04:11.452Z,16272
2018-04-02T10:04:57.494Z,16476
2018-04-02T10:05:56.904Z,16412
2018-04-02T10:06:56.624Z,16136
2018-04-02T10:07:56.481Z,15992
2018-04-02T10:08:56.915Z,16044
2018-04-02T10:10:56.702Z,15848
2018-04-02T10:11:56.469Z,15876
2018-04-02T10:13:11.682Z,16080
2018-04-02T10:13:56.826Z,15864
2018-04-02T10:14:56.803Z,15764
2018-04-02T10:15:57.086Z,15708
2018-04-02T10:16:57.113Z,15576
2018-04-02T10:17:56.872Z,15400
2018-04-02T10:18:57.175Z,15336
2018-04-02T10:19:56.922Z,15148
2018-04-02T10:20:56.948Z,15168
2018-04-02T10:21:57.227Z,15180
2018-04-02T10:22:56.994Z,15064
2018-04-02T10:23:57.718Z,15112
2018-04-02T10:24:57.070Z,15036
2018-04-02T10:25:57.066Z,15176
2018-04-02T10:26:57.091Z,15104
2018-04-02T10:27:57.374Z,14916
2018-04-02T10:29:11.798Z,14648
2018-04-02T10:29:57.634Z,14616
2018-04-02T10:30:57.192Z,14396
2018-04-02T10:32:57.497Z,14220
2018-04-02T10:33:57.255Z,14020
2018-04-02T10:34:57.584Z,13580
2018-04-02T10:36:12.222Z,13648
2018-04-02T10:36:57.591Z,14164
2018-04-02T10:37:57.657Z,14124
2018-04-02T10:38:57.373Z,13932
2018-04-02T10:39:57.659Z,13524
2018-04-02T10:41:57.466Z,13668
2018-04-02T10:42:57.734Z,13868
2018-04-02T10:44:12.455Z,13916
2018-04-02T10:44:57.769Z,13648
2018-04-02T10:45:57.816Z,13444
2018-04-02T10:46:57.820Z,13384
2018-04-02T10:47:57.848Z,13132
2018-04-02T10:48:57.603Z,12716
2018-04-02T10:49:57.639Z,12216
2018-04-02T10:50:57.649Z,11824
2018-04-02T10:51:57.930Z,11508
2018-04-02T10:53:12.618Z,11164
2018-04-02T10:53:57.869Z,10908
2018-04-02T10:54:57.478Z,10556
2018-04-02T10:55:58.029Z,10576
2018-04-02T10:56:58.038Z,8560
2018-04-02T10:57:58.068Z,10344
2018-04-02T10:58:57.825Z,10328
2018-04-02T10:59:57.638Z,10044
2018-04-02T11:00:58.129Z,9920
2018-04-02T11:01:58.155Z,10048
2018-04-02T11:02:57.914Z,10056
2018-04-02T11:03:58.190Z,10104
2018-04-02T11:04:57.954Z,10008
2018-04-02T11:05:57.980Z,10332
2018-04-02T11:07:12.917Z,10724
2018-04-02T11:08:12.938Z,8660
2018-04-02T11:08:57.783Z,8312
2018-04-02T11:09:58.323Z,9076
2018-04-02T11:10:58.344Z,10840
2018-04-02T11:11:58.107Z,8928
2018-04-02T11:12:58.129Z,9524
2018-04-02T11:13:57.889Z,10492
2018-04-02T11:15:13.089Z,10236
2018-04-02T11:16:12.851Z,8896
2018-04-02T11:16:58.478Z,9696
2018-04-02T11:17:58.604Z,9364
2018-04-02T11:18:58.515Z,8876
2018-04-02T11:19:58.538Z,8620
2018-04-02T11:20:58.303Z,8456
2018-04-02T11:21:58.063Z,8228
2018-04-02T11:22:58.359Z,8140
2018-04-02T11:23:58.363Z,7772
2018-04-02T11:24:58.643Z,7912
2018-04-02T11:25:58.668Z,8560
2018-04-02T11:26:58.685Z,8804
2018-04-02T11:27:58.450Z,8832
2018-04-02T11:28:58.537Z,8360
2018-04-02T11:29:58.492Z,7828
2018-04-02T11:30:58.514Z,7500
2018-04-02T11:32:13.190Z,7272
2018-04-02T11:32:58.912Z,7132
2018-04-02T11:34:13.234Z,7112
2018-04-02T11:34:58.853Z,7052
2018-04-02T11:35:58.697Z,6924
2018-04-02T11:36:58.900Z,6892
2018-04-02T11:37:58.672Z,7004
2018-04-02T11:38:58.940Z,7176
2018-04-02T11:39:58.962Z,7284
2018-04-02T11:40:58.721Z,7548
2018-04-02T11:41:59.017Z,7904
2018-04-02T11:42:59.187Z,7692
2018-04-02T11:43:59.045Z,7508
2018-04-02T11:44:58.812Z,7976
2018-04-02T11:46:13.488Z,7720
2018-04-02T11:46:59.119Z,7412
2018-04-02T11:48:13.928Z,7072
2018-04-02T11:48:58.890Z,6944
2018-04-02T11:50:13.570Z,6892
2018-04-02T11:50:59.195Z,6896
2018-04-02T11:51:59.213Z,6984
2018-04-02T11:52:58.974Z,7080
2018-04-02T11:53:59.254Z,7168
2018-04-02T11:55:13.674Z,7484
2018-04-02T11:55:59.299Z,7900
2018-04-02T11:56:59.319Z,8036
2018-04-02T11:58:13.735Z,8260
2018-04-02T11:58:59.360Z,7192
2018-04-02T11:59:59.116Z,7792
2018-04-02T12:00:59.141Z,7744
2018-04-02T12:02:14.078Z,6532
2018-04-02T12:02:58.921Z,6172
2018-04-02T12:04:14.117Z,5832
2018-04-02T12:05:14.138Z,5924
2018-04-02T12:05:59.512Z,7720
2018-04-02T12:06:59.525Z,7956
2018-04-02T12:07:59.544Z,7804
2018-04-02T12:08:59.566Z,7784
2018-04-02T12:09:59.594Z,7500
2018-04-02T12:10:59.349Z,7492
2018-04-02T12:11:59.369Z,7484
2018-04-02T12:12:59.129Z,7340
2018-04-02T12:13:59.413Z,7272
2018-04-02T12:14:59.692Z,7312
2018-04-02T12:16:59.733Z,7932
2018-04-02T12:17:59.332Z,8472
2018-04-02T12:19:14.434Z,9316
2018-04-02T12:19:59.798Z,9464
2018-04-02T12:20:59.799Z,9600
2018-04-02T12:21:59.580Z,9484
2018-04-02T12:22:59.597Z,9136
2018-04-02T12:23:59.875Z,8852
2018-04-02T12:24:59.898Z,6812
2018-04-02T12:25:59.917Z,7500
2018-04-02T12:26:59.680Z,8112
2018-04-02T12:27:59.480Z,7704
2018-04-02T12:29:14.122Z,7436
2018-04-02T12:29:59.783Z,7896
2018-04-02T12:30:59.509Z,8020
2018-04-02T12:31:59.523Z,7928
2018-04-02T12:33:14.723Z,7428
2018-04-02T12:34:00.096Z,7516
2018-04-02T12:35:14.506Z,7528
2018-04-02T12:35:59.866Z,7460
2018-04-02T12:37:00.197Z,7624
2018-04-02T12:38:00.171Z,8000
2018-04-02T12:38:59.930Z,8356
2018-04-02T12:39:59.791Z,7424
2018-04-02T12:40:59.974Z,7740
2018-04-02T12:43:00.508Z,7404
2018-04-02T12:44:00.007Z,6264
2018-04-02T12:46:00.376Z,7436
2018-04-02T12:47:00.353Z,5296
2018-04-02T12:48:59.881Z,6996
2018-04-02T12:50:00.421Z,7540
2018-04-02T12:51:15.096Z,8020
2018-04-02T12:52:00.325Z,7828
2018-04-02T12:53:00.478Z,7640
2018-04-02T12:54:00.251Z,7332
2018-04-02T12:55:00.268Z,5876
2018-04-02T12:56:00.541Z,5148
2018-04-02T12:57:15.222Z,7092
2018-04-02T12:58:00.586Z,7124
2018-04-02T12:59:00.407Z,7164
2018-04-02T13:00:00.632Z,7168
2018-04-02T13:01:00.643Z,7288
2018-04-02T13:02:00.404Z,6876
2018-04-02T13:03:00.729Z,5216
2018-04-02T13:04:00.446Z,6976
2018-04-02T13:05:00.471Z,6860
2018-04-02T13:06:00.756Z,6820
2018-04-02T13:08:00.788Z,6776
2018-04-02T13:09:00.807Z,6668
2018-04-02T13:10:00.834Z,6844
2018-04-02T13:11:00.593Z,6868
2018-04-02T13:12:00.880Z,6956
2018-04-02T13:13:00.894Z,6964
2018-04-02T13:14:15.309Z,6884
2018-04-02T13:15:15.589Z,6920
2018-04-02T13:16:00.694Z,7020
2018-04-02T13:17:00.970Z,4980
2018-04-02T13:18:00.994Z,5168
2018-04-02T13:19:01.632Z,6828
2018-04-02T13:20:15.712Z,7020
2018-04-02T13:21:15.456Z,7000
2018-04-02T13:22:15.732Z,7048
2018-04-02T13:23:15.754Z,7208
2018-04-02T13:24:00.858Z,7216
2018-04-02T13:25:00.620Z,5628
2018-04-02T13:26:00.895Z,5096
2018-04-02T13:27:01.180Z,5164
2018-04-02T13:28:00.945Z,5216
2018-04-02T13:29:15.876Z,5080
2018-04-02T13:30:15.638Z,6692
2018-04-02T13:31:01.043Z,7020
2018-04-02T13:32:15.942Z,6968
2018-04-02T13:33:01.304Z,6908
2018-04-02T13:34:01.333Z,6904
2018-04-02T13:35:01.083Z,6852
2018-04-02T13:36:01.109Z,6868
2018-04-02T13:37:01.126Z,6856
2018-04-02T13:39:30.739Z,6944
2018-04-02T13:40:15.841Z,7004
2018-04-02T13:41:01.541Z,7088
2018-04-02T13:42:00.965Z,7352
2018-04-02T13:43:01.246Z,7048
2018-04-02T13:44:01.528Z,6724
2018-04-02T13:45:01.284Z,6788
2018-04-02T13:47:01.586Z,6704
2018-04-02T13:48:01.617Z,7124
2018-04-02T13:49:01.372Z,7024
2018-04-02T13:50:01.777Z,6800
2018-04-02T13:51:01.668Z,6580
2018-04-02T13:52:01.442Z,6492
2018-04-02T13:53:16.367Z,6524
2018-04-02T13:54:16.390Z,6680
2018-04-02T13:55:01.748Z,6868
2018-04-02T13:56:17.054Z,6976
2018-04-02T13:57:01.791Z,7012
2018-04-02T13:58:01.559Z,6944
2018-04-02T13:59:01.580Z,6800
2018-04-02T14:00:16.511Z,6784
2018-04-02T14:01:01.872Z,6744
2018-04-02T14:02:01.638Z,6812
2018-04-02T14:03:01.923Z,7072
2018-04-02T14:04:01.933Z,7148
2018-04-02T14:06:01.977Z,7500
2018-04-02T14:07:16.654Z,7460
2018-04-02T14:08:02.018Z,7332
2018-04-02T14:09:01.777Z,7216
2018-04-02T14:10:02.064Z,7160
2018-04-02T14:11:02.183Z,7104
2018-04-02T14:12:16.762Z,5948
2018-04-02T14:13:02.127Z,7024
2018-04-02T14:14:01.889Z,7136
2018-04-02T14:15:02.159Z,6512
2018-04-02T14:16:02.188Z,7080